Time;durP1;ratioP1;P1;durP2;ratioP2;P2;SDS_P1;SDS_P2;PMS_P1;PMS_P2;Temp;Humidity;BMP_temperature;BMP_pressure;BME280_temperature;BME280_humidity;BME280_pressure;Samples;Min_cycle;Max_cycle;Signal;HPM_P1;HPM_P2
2021/01/21 00:01:19;;;;;;;122.00;67.33;;;;;;;2.24;56.20;100449.22;3312586;23;20105;-80
2021/01/21 00:06:21;;;;;;;115.33;67.83;;;;;;;2.11;56.72;100422.28;4116086;26;20045;-78
2021/01/21 00:09:16;;;;;;;128.17;68.07;;;;;;;2.21;56.70;100434.59;5079798;23;20041;-79
2021/01/21 00:19:29;;;;;;;145.53;80.73;;;;;;;1.16;56.78;100287.16;1442164;23;20048;-79
2021/01/21 00:22:32;;;;;;;151.67;84.40;;;;;;;2.15;56.99;100444.59;5087010;23;20071;-79
2021/01/21 00:27:50;;;;;;;173.43;92.57;;;;;;;1.66;57.06;100374.94;1355072;23;20041;-79
2021/01/21 00:40:29;;;;;;;190.17;102.00;;;;;;;1.99;57.06;100447.38;5082492;23;20049;-79
2021/01/21 00:43:04;;;;;;;189.77;100.17;;;;;;;1.80;56.98;100429.53;5083662;23;20075;-78
2021/01/21 00:45:29;;;;;;;195.60;99.23;;;;;;;1.85;57.17;100437.88;5084649;23;20064;-78
2021/01/21 00:50:30;;;;;;;184.67;97.27;;;;;;;1.78;57.05;100410.59;4930558;23;20049;-77
2021/01/21 00:55:49;;;;;;;172.60;94.53;;;;;;;1.83;56.98;100423.28;1049251;23;20356;-79
2021/01/21 01:00:50;;;;;;;175.50;92.67;;;;;;;1.79;57.19;100419.22;3881538;23;20053;-80
2021/01/21 01:03:19;;;;;;;171.73;90.70;;;;;;;1.76;57.15;100412.44;5088134;23;20053;-79
2021/01/21 01:05:50;;;;;;;162.03;89.43;;;;;;;1.87;57.03;100422.16;5062721;23;20030;-79
2021/01/21 01:08:22;;;;;;;154.45;84.90;;;;;;;1.96;57.32;100444.16;5056368;28;20044;-80
2021/01/21 01:18:22;;;;;;;162.50;84.10;;;;;;;1.98;57.21;100424.06;5082462;23;20052;-79
2021/01/21 01:26:04;;;;;;;152.50;77.87;;;;;;;1.66;57.50;100369.75;5080370;23;20056;-79
2021/01/21 01:28:30;;;;;;;163.97;83.07;;;;;;;1.53;57.20;100348.88;5077132;28;20037;-78
2021/01/21 01:33:37;;;;;;;150.97;80.17;;;;;;;1.94;57.31;100409.56;3932338;23;20049;-79
2021/01/21 01:38:39;;;;;;;146.50;74.20;;;;;;;1.93;57.13;100387.91;1608565;23;20037;-79
2021/01/21 01:41:09;;;;;;;144.73;76.20;;;;;;;1.63;57.20;100343.06;5088572;23;20056;-79
2021/01/21 01:43:35;;;;;;;133.50;72.37;;;;;;;1.91;57.16;100388.00;5058849;23;20049;-79
2021/01/21 01:48:39;;;;;;;132.40;70.63;;;;;;;1.72;57.28;100374.53;4331955;26;20057;-78
2021/01/21 01:53:42;;;;;;;107.63;59.63;;;;;;;1.88;57.34;100401.22;5089458;23;20045;-77
2021/01/21 01:56:18;;;;;;;106.65;58.72;;;;;;;1.86;57.32;100386.63;5081334;23;20342;-78
2021/01/21 01:58:44;;;;;;;111.90;64.47;;;;;;;1.55;57.39;100361.81;5076190;28;20029;-79
2021/01/21 02:01:11;;;;;;;130.00;68.43;;;;;;;1.85;57.39;100388.41;5063454;23;20096;-78
2021/01/21 02:08:54;;;;;;;119.77;63.13;;;;;;;1.82;57.78;100370.38;4821900;23;20045;-79
2021/01/21 02:12:04;;;;;;;119.57;62.53;;;;;;;1.81;57.63;100376.53;5060219;28;20025;-79
2021/01/21 02:15:11;;;;;;;112.03;59.27;;;;;;;1.81;57.69;100378.31;5053813;23;20044;-80
2021/01/21 02:18:08;;;;;;;108.23;58.87;;;;;;;1.77;57.93;100376.84;5057321;23;20080;-79
2021/01/21 02:25:48;;;;;;;129.63;66.47;;;;;;;1.78;57.80;100373.28;5089204;23;20049;-79
2021/01/21 02:36:05;;;;;;;;;;;;;;;1.62;58.38;100378.69;5091161;23;20052;-79
2021/01/21 02:46:35;;;;;;;99.65;53.65;;;;;;;1.66;57.45;100377.53;1613708;23;20041;-79
2021/01/21 02:49:36;;;;;;;93.97;51.03;;;;;;;1.65;57.63;100382.84;5065174;23;20034;-79
2021/01/21 02:58:16;;;;;;;95.00;50.07;;;;;;;1.60;57.51;100380.56;5079732;23;20018;-80
2021/01/21 03:03:43;;;;;;;82.30;44.63;;;;;;;1.57;57.58;100371.19;3295984;26;20052;-79
2021/01/21 03:06:14;;;;;;;75.43;43.55;;;;;;;1.58;57.53;100372.00;5059475;23;20100;-79
2021/01/21 03:08:45;;;;;;;74.45;41.28;;;;;;;1.59;57.39;100368.47;5080294;23;20045;-80
2021/01/21 03:11:19;;;;;;;73.60;40.77;;;;;;;1.56;57.40;100377.31;5086433;23;20049;-81
2021/01/21 03:13:48;;;;;;;78.68;43.40;;;;;;;1.57;57.30;100371.19;5079868;23;20071;-78
2021/01/21 03:21:22;;;;;;;75.95;40.33;;;;;;;1.61;57.03;100360.56;5092972;23;20060;-79
2021/01/21 03:23:50;;;;;;;80.30;42.83;;;;;;;1.57;57.10;100344.31;5057462;23;20045;-79
2021/01/21 03:26:40;;;;;;;81.50;42.90;;;;;;;1.46;57.30;100331.97;5074726;28;20044;-80
2021/01/21 03:31:40;;;;;;;67.27;39.30;;;;;;;1.54;57.30;100352.31;4171677;26;20057;-77
2021/01/21 03:34:08;;;;;;;67.00;38.00;;;;;;;1.50;57.50;100358.66;5055769;23;20049;-78
2021/01/21 03:36:37;;;;;;;70.43;38.77;;;;;;;1.06;57.23;100271.31;5048488;28;20056;-79
2021/01/21 03:39:04;;;;;;;71.90;41.10;;;;;;;0.99;57.34;100270.06;5050249;28;20093;-78
2021/01/21 03:41:50;;;;;;;61.07;34.10;;;;;;;1.54;57.42;100357.53;5069388;23;20117;-78
2021/01/21 03:44:27;;;;;;;56.53;32.73;;;;;;;1.52;57.10;100355.03;5028035;28;20038;-78
2021/01/21 03:49:49;;;;;;;61.27;34.90;;;;;;;1.51;57.27;100368.97;5074683;23;20049;-78
2021/01/21 03:52:17;;;;;;;53.17;32.23;;;;;;;1.00;57.13;100287.31;5059184;23;20344;-79
2021/01/21 03:55:09;;;;;;;54.03;32.07;;;;;;;1.46;57.10;100364.97;5020617;23;20042;-77
2021/01/21 03:58:09;;;;;;;54.97;32.67;;;;;;;1.43;57.51;100358.19;5036590;28;20046;-80
2021/01/21 04:00:37;;;;;;;45.70;25.38;;;;;;;1.10;57.20;100311.81;4976911;28;20148;-79
2021/01/21 04:03:24;;;;;;;58.23;33.73;;;;;;;1.42;57.27;100363.50;5039395;23;20045;-79
2021/01/21 04:08:14;;;;;;;59.50;33.65;;;;;;;1.30;57.08;100351.28;5084139;23;20061;-78
2021/01/21 04:13:15;;;;;;;53.60;30.07;;;;;;;1.23;57.07;100332.66;5055270;23;20053;-79
2021/01/21 04:18:12;;;;;;;61.03;33.40;;;;;;;1.35;56.99;100365.66;5084591;23;20055;-78
2021/01/21 04:21:03;;;;;;;80.67;42.07;;;;;;;1.14;56.82;100335.84;5056454;23;20057;-78
2021/01/21 04:23:33;;;;;;;81.00;43.15;;;;;;;1.34;57.10;100377.00;5078790;23;20045;-78
2021/01/21 04:26:00;;;;;;;81.33;41.80;;;;;;;1.34;56.93;100378.78;5095457;23;20136;-79
2021/01/21 04:28:26;;;;;;;73.33;40.00;;;;;;;1.32;57.13;100383.25;5067301;23;20037;-79
2021/01/21 04:30:54;;;;;;;76.80;38.10;;;;;;;1.33;57.15;100387.50;5084410;23;20045;-79
2021/01/21 04:33:48;;;;;;;79.00;39.97;;;;;;;1.29;57.09;100386.88;5079092;23;20041;-78
2021/01/21 04:36:26;;;;;;;69.70;39.45;;;;;;;0.99;57.19;100342.88;5059206;23;20053;-79
2021/01/21 04:38:56;;;;;;;73.13;37.97;;;;;;;1.23;57.08;100395.91;5080267;23;20045;-77
2021/01/21 04:41:23;;;;;;;74.87;40.67;;;;;;;0.79;57.16;100340.69;5073059;28;20041;-78
2021/01/21 04:46:34;;;;;;;79.60;42.75;;;;;;;1.07;57.53;100379.63;5078841;23;20144;-79
2021/01/21 04:49:07;;;;;;;83.47;44.53;;;;;;;1.23;57.47;100411.53;5063328;23;20466;-80
2021/01/21 04:51:33;;;;;;;83.87;42.13;;;;;;;1.20;57.50;100416.91;5082368;23;20057;-79
2021/01/21 04:54:03;;;;;;;91.97;45.30;;;;;;;1.21;57.46;100421.19;5073920;28;20031;-78
2021/01/21 04:59:12;;;;;;;88.60;44.50;;;;;;;1.22;57.48;100417.66;5077290;23;20044;-78
2021/01/21 05:01:40;;;;;;;85.70;46.93;;;;;;;0.94;57.36;100376.13;5060576;23;20041;-79
2021/01/21 05:06:44;;;;;;;106.50;55.97;;;;;;;1.23;57.21;100419.31;5092923;23;20056;-78
2021/01/21 05:11:59;;;;;;;96.37;48.17;;;;;;;1.19;57.20;100415.25;5071455;28;20355;-78
2021/01/21 05:14:26;;;;;;;102.67;50.87;;;;;;;1.21;57.30;100413.38;5072739;28;20020;-78
2021/01/21 05:17:04;;;;;;;101.53;51.57;;;;;;;1.20;57.55;100409.13;5072385;28;20402;-78
2021/01/21 05:19:40;;;;;;;86.47;44.90;;;;;;;1.19;57.33;100417.84;5071147;28;20033;-81
2021/01/21 05:22:27;;;;;;;84.33;45.83;;;;;;;1.15;57.34;100426.78;5084814;23;20065;-79
2021/01/21 05:24:54;;;;;;;91.80;50.13;;;;;;;0.64;57.32;100345.88;5064319;23;20061;-79
2021/01/21 05:27:21;;;;;;;77.93;42.00;;;;;;;1.16;57.33;100427.59;5069463;23;20040;-79
2021/01/21 05:29:51;;;;;;;80.67;40.90;;;;;;;0.95;57.29;100396.81;5072971;28;20047;-79
2021/01/21 05:32:26;;;;;;;81.23;43.47;;;;;;;0.24;57.30;100289.53;5079222;23;21582;-79
2021/01/21 05:34:54;;;;;;;80.33;44.50;;;;;;;1.18;57.35;100439.59;5038620;28;20037;-77
2021/01/21 05:38:06;;;;;;;81.20;44.07;;;;;;;1.19;57.65;100443.84;5055944;28;20051;-78
2021/01/21 05:40:47;;;;;;;76.85;44.88;;;;;;;1.20;57.20;100445.53;5012399;28;20034;-78
2021/01/21 05:43:19;;;;;;;84.50;47.27;;;;;;;0.99;57.12;100404.44;5050447;23;20351;-79
2021/01/21 05:45:47;;;;;;;93.87;51.27;;;;;;;0.97;56.93;100394.13;5098518;23;20124;-78
2021/01/21 05:48:13;;;;;;;95.30;52.83;;;;;;;1.26;57.16;100434.72;5053825;28;20033;-79
2021/01/21 05:50:43;;;;;;;89.27;47.67;;;;;;;1.44;56.91;100452.72;5071061;28;20017;-77
2021/01/21 05:53:17;;;;;;;92.87;51.37;;;;;;;1.18;56.78;100399.72;5038376;28;20074;-78
2021/01/21 05:55:56;;;;;;;89.67;49.10;;;;;;;1.45;56.57;100460.41;5077994;23;20044;-79
2021/01/21 05:58:28;;;;;;;90.73;50.13;;;;;;;1.35;57.00;100425.50;5155152;23;20037;-78
2021/01/21 06:03:41;;;;;;;93.40;51.97;;;;;;;1.57;56.62;100466.63;4920968;23;4090637;-78
2021/01/21 06:06:10;;;;;;;95.23;55.47;;;;;;;1.57;56.49;100469.25;5050103;28;20025;-79
2021/01/21 06:08:43;;;;;;;100.93;56.23;;;;;;;1.58;56.68;100482.16;5064417;28;20029;-79
2021/01/21 06:11:11;;;;;;;102.90;59.60;;;;;;;1.52;56.77;100466.94;5045348;28;20038;-78
2021/01/21 06:14:01;;;;;;;101.53;63.23;;;;;;;1.61;56.63;100488.94;5047994;28;20029;-77
2021/01/21 06:16:34;;;;;;;96.63;57.43;;;;;;;1.62;56.80;100493.22;5071793;23;20064;-83
2021/01/21 06:19:00;;;;;;;99.87;58.13;;;;;;;1.13;56.86;100405.22;5046277;28;20029;-80
2021/01/21 06:21:27;;;;;;;93.83;58.07;;;;;;;1.72;56.74;100499.50;5050660;28;20043;-78
2021/01/21 06:24:22;;;;;;;102.50;63.13;;;;;;;1.59;56.67;100456.97;5067962;28;20032;-77
2021/01/21 06:26:51;;;;;;;119.10;67.57;;;;;;;1.78;56.56;100486.09;5058476;28;20037;-80
2021/01/21 06:29:19;;;;;;;131.00;75.13;;;;;;;1.81;56.51;100487.66;5049552;28;20048;-78
2021/01/21 06:32:16;;;;;;;143.07;85.17;;;;;;;1.79;56.65;100482.53;5049510;28;20049;-82
2021/01/21 06:34:43;;;;;;;154.77;89.10;;;;;;;1.76;56.50;100466.28;5069736;23;20126;-77
2021/01/21 06:37:21;;;;;;;164.70;93.10;;;;;;;1.41;56.47;100406.06;5080112;23;20041;-78
2021/01/21 06:40:00;;;;;;;171.57;95.03;;;;;;;1.87;56.39;100467.25;5071836;23;20072;-79
2021/01/21 06:42:29;;;;;;;184.33;108.00;;;;;;;1.72;56.37;100439.63;5067120;23;20049;-78
2021/01/21 06:47:20;;;;;;;239.60;134.55;;;;;;;2.00;56.44;100469.06;5093818;23;20052;-76
2021/01/21 06:49:53;;;;;;;232.20;135.03;;;;;;;2.07;56.11;100465.94;5078494;23;20048;-76
2021/01/21 06:52:35;;;;;;;225.73;127.67;;;;;;;2.06;56.44;100466.06;5049102;23;20037;-80
2021/01/21 06:55:21;;;;;;;185.97;111.33;;;;;;;2.11;56.78;100466.59;5024176;28;20083;-79
2021/01/21 06:58:09;;;;;;;160.33;89.23;;;;;;;2.14;55.96;100459.41;5078639;23;20076;-80
2021/01/21 07:00:37;;;;;;;186.57;96.67;;;;;;;2.10;56.20;100459.69;5052833;28;20052;-79
2021/01/21 07:03:34;;;;;;;185.13;97.93;;;;;;;2.09;56.19;100452.81;5076052;23;20041;-78
2021/01/21 07:06:06;;;;;;;182.17;97.17;;;;;;;1.45;56.16;100345.94;5059201;23;20029;-78
2021/01/21 07:13:52;;;;;;;218.20;122.27;;;;;;;2.17;56.02;100453.97;5117122;23;20063;-78
2021/01/21 07:21:32;;;;;;;156.00;89.87;;;;;;;2.09;56.13;100478.88;5059386;23;20088;-77
2021/01/21 07:24:13;;;;;;;148.03;82.93;;;;;;;1.84;56.46;100420.59;5065556;23;20741;-79
2021/01/21 07:26:55;;;;;;;152.50;86.80;;;;;;;2.15;56.61;100466.28;5084147;23;20037;-80
2021/01/21 07:29:26;;;;;;;173.50;97.40;;;;;;;0.92;56.37;100263.59;5060195;23;20052;-78
2021/01/21 07:32:04;;;;;;;186.02;106.30;;;;;;;2.27;56.12;100474.25;5070403;28;20040;-78
2021/01/21 07:34:35;;;;;;;201.53;110.60;;;;;;;2.34;56.38;100475.50;5050222;28;20021;-78
2021/01/21 07:40:12;;;;;;;180.10;104.70;;;;;;;2.40;56.34;100482.91;4178508;23;20049;-78
2021/01/21 07:42:43;;;;;;;180.02;94.75;;;;;;;2.44;56.40;100487.81;5044063;23;21172;-78
2021/01/21 07:45:26;;;;;;;162.05;94.80;;;;;;;2.49;56.72;100477.06;5084956;23;20543;-79
2021/01/21 07:47:56;;;;;;;162.77;92.13;;;;;;;2.61;56.18;100483.22;5069573;23;20033;-77
2021/01/21 07:50:35;;;;;;;161.23;95.40;;;;;;;1.59;56.37;100311.22;5088616;23;20048;-79
2021/01/21 08:03:46;;;;;;;128.27;75.32;;;;;;;3.03;56.20;100477.69;5138419;23;20020;-77
2021/01/21 08:06:29;;;;;;;113.50;66.43;;;;;;;3.11;56.24;100469.31;5063429;23;20044;-80
2021/01/21 08:09:11;;;;;;;114.27;66.53;;;;;;;3.04;56.37;100468.94;5034139;28;20370;-73
2021/01/21 08:11:41;;;;;;;87.07;53.87;;;;;;;2.99;56.23;100431.06;5044442;28;20029;-79
2021/01/21 08:16:43;;;;;;;92.40;54.97;;;;;;;2.34;55.97;100299.13;5062044;23;20053;-79
2021/01/21 08:19:18;;;;;;;91.43;53.27;;;;;;;3.50;55.86;100470.88;5051402;23;20041;-79
2021/01/21 08:21:48;;;;;;;93.80;58.40;;;;;;;3.13;55.59;100405.66;5082979;23;20064;-78
2021/01/21 08:26:51;;;;;;;98.70;56.23;;;;;;;1.78;55.55;100145.03;5076171;23;20046;-79
2021/01/21 08:34:43;;;;;;;88.30;50.47;;;;;;;3.85;55.26;100426.56;5082442;23;20053;-78
2021/01/21 08:39:51;;;;;;;83.30;49.35;;;;;;;3.76;55.27;100370.59;5173699;22;20088;-79
2021/01/21 08:44:49;;;;;;;97.30;56.83;;;;;;;3.13;54.88;100228.22;5127630;23;20071;-77
2021/01/21 08:54:48;;;;;;;92.35;56.40;;;;;;;2.68;54.31;100132.50;5060240;23;20044;-79
2021/01/21 08:59:46;;;;;;;94.87;56.90;;;;;;;4.66;53.48;100400.34;5066641;23;20057;-79
2021/01/21 09:02:12;;;;;;;98.97;59.60;;;;;;;5.18;53.39;100466.06;5053325;23;20036;-77
2021/01/21 09:04:44;;;;;;;95.77;55.03;;;;;;;4.69;53.18;100394.88;5085058;23;20105;-79
2021/01/21 09:12:35;;;;;;;77.23;46.20;;;;;;;4.87;52.60;100383.91;5101819;23;20110;-78
2021/01/21 09:17:44;;;;;;;76.73;44.23;;;;;;;5.51;52.19;100452.09;3305101;23;20827;-79
2021/01/21 09:20:34;;;;;;;65.57;39.97;;;;;;;4.17;52.05;100230.75;5060256;23;20113;-79
2021/01/21 09:23:29;;;;;;;67.07;42.47;;;;;;;5.62;51.87;100442.44;5151514;23;20100;-79
2021/01/21 09:26:25;;;;;;;65.40;39.50;;;;;;;5.70;51.80;100440.00;5068581;28;20044;-79
2021/01/21 09:29:07;;;;;;;52.63;32.60;;;;;;;5.71;51.48;100441.69;5060976;23;20363;-79
2021/01/21 09:32:03;;;;;;;54.33;28.67;;;;;;;5.73;51.47;100439.75;5025766;28;20102;-78
2021/01/21 09:34:29;;;;;;;51.77;31.97;;;;;;;5.71;51.27;100425.97;5055958;23;20451;-78
2021/01/21 09:36:58;;;;;;;56.90;35.43;;;;;;;3.81;51.12;100138.63;5105379;23;20049;-79
2021/01/21 09:42:18;;;;;;;;;;;;;;;5.76;51.20;100420.34;5085886;23;20048;-79
2021/01/21 09:44:46;;;;;;;73.67;42.37;;;;;;;5.87;51.05;100419.47;5082187;23;19920;-79
2021/01/21 09:57:27;;;;;;;33.73;21.63;;;;;;;6.22;50.26;100403.47;5069758;28;20035;-77
2021/01/21 10:00:28;;;;;;;38.80;24.90;;;;;;;6.29;50.13;100394.13;5142079;23;20046;-82
2021/01/21 10:03:13;;;;;;;33.03;19.37;;;;;;;6.19;49.90;100360.00;4998330;28;20046;-80
2021/01/21 10:05:39;;;;;;;35.23;18.60;;;;;;;6.51;49.64;100395.75;4996816;28;20424;-88
2021/01/21 10:08:14;;;;;;;32.03;18.30;;;;;;;6.34;49.77;100358.69;4997108;28;20038;-89
2021/01/21 10:10:46;;;;;;;27.77;16.77;;;;;;;6.51;49.71;100374.78;4996194;28;20038;-86
2021/01/21 10:13:12;;;;;;;29.60;16.60;;;;;;;6.68;49.74;100382.84;4995690;28;20049;-86
2021/01/21 10:15:43;;;;;;;29.77;16.07;;;;;;;6.70;49.40;100377.50;4978601;28;20026;-82
2021/01/21 10:18:08;;;;;;;23.48;14.52;;;;;;;6.60;49.41;100395.78;4989986;28;20058;-85
2021/01/21 10:20:34;;;;;;;26.57;15.23;;;;;;;6.79;49.13;100363.56;4982043;28;20042;-85
2021/01/21 10:22:59;;;;;;;18.63;12.77;;;;;;;6.96;48.72;100376.06;4975521;28;20035;-80
2021/01/21 10:25:25;;;;;;;33.53;16.20;;;;;;;6.83;49.33;100333.47;4975218;28;20039;-81
2021/01/21 10:27:50;;;;;;;23.60;13.10;;;;;;;7.26;48.66;100372.50;4985471;28;20544;-86
2021/01/21 10:30:16;;;;;;;23.37;12.47;;;;;;;7.22;48.34;100346.66;4977725;28;20129;-86
2021/01/21 10:32:42;;;;;;;24.87;13.30;;;;;;;7.17;48.05;100306.84;4991160;28;20069;-81
2021/01/21 10:35:07;;;;;;;18.80;11.67;;;;;;;7.03;48.06;100262.63;5012930;28;20440;-78
2021/01/21 10:37:33;;;;;;;17.30;10.50;;;;;;;7.45;47.44;100298.16;5025342;28;20115;-77
2021/01/21 10:39:58;;;;;;;19.90;12.63;;;;;;;7.81;46.98;100357.06;5020701;28;20022;-85
2021/01/21 10:42:24;;;;;;;20.53;12.60;;;;;;;7.59;46.88;100284.59;5033483;28;20041;-77
2021/01/21 10:44:49;;;;;;;18.73;12.53;;;;;;;7.97;46.16;100332.81;5032286;28;20355;-78
2021/01/21 10:47:15;;;;;;;18.87;12.77;;;;;;;7.98;46.33;100327.41;5027801;28;20037;-79
2021/01/21 10:49:40;;;;;;;18.50;13.53;;;;;;;7.60;46.57;100256.50;5030056;28;20040;-87
2021/01/21 10:52:06;;;;;;;17.83;10.57;;;;;;;7.67;45.78;100296.19;5019363;28;20428;-85
2021/01/21 10:54:31;;;;;;;16.20;10.50;;;;;;;7.43;46.26;100221.28;5032135;28;21332;-80
2021/01/21 10:56:56;;;;;;;18.83;11.50;;;;;;;7.00;46.18;100140.31;5016827;28;20500;-87
2021/01/21 10:59:22;;;;;;;13.57;9.20;;;;;;;7.64;45.92;100224.56;5030250;28;20025;-75
2021/01/21 11:01:47;;;;;;;12.33;8.80;;;;;;;7.58;45.74;100211.97;5016919;28;20343;-77
2021/01/21 11:04:13;;;;;;;13.30;9.77;;;;;;;8.26;45.74;100299.38;5033890;28;20036;-74
2021/01/21 11:06:39;;;;;;;15.23;10.23;;;;;;;8.36;45.24;100298.53;5031180;28;20454;-77
2021/01/21 11:09:04;;;;;;;15.70;11.07;;;;;;;8.24;45.66;100274.19;5028079;28;20048;-80
2021/01/21 11:11:30;;;;;;;13.90;9.13;;;;;;;8.28;45.76;100249.25;5012212;28;20029;-85
2021/01/21 11:13:55;;;;;;;14.27;9.60;;;;;;;7.97;45.32;100203.97;5015251;28;20026;-93
2021/01/21 11:16:21;;;;;;;14.73;11.07;;;;;;;8.39;45.29;100283.28;5008839;28;20032;-80
2021/01/21 11:18:46;;;;;;;45.07;28.13;;;;;;;7.92;44.77;100211.44;5034206;28;20033;-85
2021/01/21 11:21:11;;;;;;;28.23;18.73;;;;;;;8.12;45.31;100246.38;5033869;28;20112;-91
2021/01/21 11:23:37;;;;;;;19.87;12.70;;;;;;;8.27;45.63;100264.22;5034679;28;20096;-88
2021/01/21 11:26:02;;;;;;;21.63;14.63;;;;;;;8.23;45.80;100257.56;5015895;28;20359;-88
2021/01/21 11:28:28;;;;;;;21.43;13.03;;;;;;;8.17;45.51;100246.78;5033291;28;20029;-78
2021/01/21 11:30:53;;;;;;;20.53;13.50;;;;;;;7.47;45.05;100132.50;5032526;28;20051;-87
2021/01/21 11:33:19;;;;;;;15.97;10.00;;;;;;;6.95;45.61;100048.03;5028233;28;20961;-85
2021/01/21 11:35:45;;;;;;;15.77;10.20;;;;;;;8.04;45.54;100230.50;5032666;28;20427;-80
2021/01/21 11:38:12;;;;;;;14.67;9.23;;;;;;;7.57;45.34;100170.91;5032097;28;20037;-85
2021/01/21 11:40:37;;;;;;;12.20;9.13;;;;;;;7.74;45.38;100200.88;5030392;28;20432;-92
2021/01/21 11:43:03;;;;;;;14.87;9.30;;;;;;;7.48;45.55;100169.13;5022824;28;20121;-90
2021/01/21 11:45:30;;;;;;;16.53;10.53;;;;;;;7.90;45.19;100216.84;5015690;28;20037;-89
2021/01/21 11:47:55;;;;;;;22.40;12.83;;;;;;;8.01;46.01;100231.63;5015284;28;20104;-89
2021/01/21 11:50:20;;;;;;;21.13;13.63;;;;;;;8.04;46.37;100226.06;5011017;28;20403;-86
2021/01/21 11:52:46;;;;;;;20.50;12.37;;;;;;;8.10;46.21;100225.50;5033940;28;20029;-84
2021/01/21 11:55:13;;;;;;;19.90;12.93;;;;;;;8.14;45.72;100215.50;5033768;28;20029;-83
2021/01/21 11:57:39;;;;;;;23.00;14.10;;;;;;;7.82;45.94;100163.34;5033808;28;20410;-88
2021/01/21 12:00:10;;;;;;;18.27;11.57;;;;;;;7.67;46.02;100143.75;5033167;28;20057;-84
2021/01/21 12:02:35;;;;;;;17.97;11.33;;;;;;;8.14;45.84;100215.50;5012452;28;20030;-85
2021/01/21 12:05:00;;;;;;;16.13;10.90;;;;;;;7.92;45.78;100183.34;5033954;28;20320;-84
2021/01/21 12:07:26;;;;;;;16.40;10.37;;;;;;;8.00;45.72;100190.53;5033379;28;20034;-85
2021/01/21 12:09:52;;;;;;;21.20;14.00;;;;;;;7.75;46.40;100160.47;5034442;28;20021;-88
2021/01/21 12:12:18;;;;;;;20.20;14.13;;;;;;;7.08;46.10;100040.69;5017897;28;20505;-88
2021/01/21 12:14:43;;;;;;;21.90;14.73;;;;;;;7.50;46.36;100121.69;5037573;28;20167;-87
2021/01/21 12:17:08;;;;;;;21.10;13.33;;;;;;;8.14;46.05;100216.34;5037035;28;20025;-89
2021/01/21 12:19:35;;;;;;;21.07;13.10;;;;;;;8.16;45.94;100214.38;5037434;28;20030;-86
2021/01/21 12:22:00;;;;;;;20.87;14.60;;;;;;;8.15;46.61;100209.28;5037342;28;20040;-89
2021/01/21 12:24:26;;;;;;;21.43;12.87;;;;;;;7.98;46.64;100209.06;5035273;28;20026;-90
2021/01/21 12:26:51;;;;;;;21.70;15.03;;;;;;;8.22;46.23;100220.91;5019863;28;20037;-85
2021/01/21 12:29:17;;;;;;;22.07;15.73;;;;;;;8.24;46.19;100221.56;5020159;28;20041;-83
2021/01/21 12:31:42;;;;;;;19.23;14.30;;;;;;;8.11;46.54;100215.81;5019679;28;20033;-86
2021/01/21 12:34:08;;;;;;;18.67;12.87;;;;;;;8.27;46.45;100219.47;5016980;28;20028;-80
2021/01/21 12:36:33;;;;;;;19.77;13.47;;;;;;;8.28;46.90;100218.50;5018637;28;20025;-86
2021/01/21 12:38:59;;;;;;;18.23;12.07;;;;;;;8.15;46.59;100199.56;5037077;28;20030;-88
2021/01/21 12:41:26;;;;;;;17.07;11.63;;;;;;;8.12;46.44;100218.28;5036628;28;20097;-86
2021/01/21 12:43:51;;;;;;;17.10;10.47;;;;;;;8.12;46.43;100212.19;5037370;28;20394;-88
2021/01/21 12:46:17;;;;;;;22.90;15.13;;;;;;;7.61;46.48;100117.09;5036958;28;20041;-85
2021/01/21 12:48:42;;;;;;;25.37;15.37;;;;;;;8.17;46.75;100204.69;5037066;28;20029;-83
2021/01/21 12:51:07;;;;;;;25.77;17.03;;;;;;;7.76;46.74;100142.91;5019772;28;20025;-80
2021/01/21 12:53:33;;;;;;;25.03;16.37;;;;;;;7.69;47.00;100126.06;5036914;28;20044;-89
2021/01/21 12:55:58;;;;;;;22.07;15.07;;;;;;;8.19;47.09;100208.03;5036632;28;20029;-83
2021/01/21 12:58:24;;;;;;;20.50;12.90;;;;;;;7.81;47.27;100151.19;5009375;28;20038;-89
2021/01/21 13:00:50;;;;;;;26.60;15.70;;;;;;;7.74;46.92;100127.28;5036435;28;20036;-82
2021/01/21 13:03:16;;;;;;;21.03;13.80;;;;;;;7.64;46.63;100116.81;5037081;28;20163;-81
2021/01/21 13:05:42;;;;;;;17.97;13.30;;;;;;;8.29;46.50;100208.81;5034865;28;20021;-87
2021/01/21 13:08:07;;;;;;;23.50;14.50;;;;;;;7.61;47.01;100106.59;5008984;28;20051;-89
2021/01/21 13:10:32;;;;;;;19.10;14.23;;;;;;;8.21;46.93;100206.91;5036582;28;20040;-85
2021/01/21 13:12:58;;;;;;;22.13;14.53;;;;;;;8.08;46.69;100193.25;5036331;28;20029;-85
2021/01/21 13:15:23;;;;;;;19.97;13.60;;;;;;;8.24;46.65;100222.41;5036286;28;20332;-86
2021/01/21 13:17:49;;;;;;;20.57;14.27;;;;;;;8.07;47.24;100194.22;5036517;28;20498;-88
2021/01/21 13:20:14;;;;;;;23.00;14.83;;;;;;;7.93;47.30;100176.31;5018668;28;20493;-84
2021/01/21 13:22:40;;;;;;;20.03;15.10;;;;;;;8.10;47.02;100209.72;5036434;28;20435;-87
2021/01/21 13:25:05;;;;;;;22.60;16.03;;;;;;;7.16;46.89;100056.53;5007846;28;20426;-85
2021/01/21 13:27:31;;;;;;;21.60;14.77;;;;;;;8.23;47.45;100228.63;5036453;28;20065;-87
2021/01/21 13:29:57;;;;;;;17.93;12.53;;;;;;;7.50;46.92;100134.84;5018287;28;20025;-82
2021/01/21 13:32:22;;;;;;;16.10;11.40;;;;;;;7.69;47.10;100158.41;5028878;28;20110;-81
2021/01/21 13:34:48;;;;;;;21.27;13.07;;;;;;;8.19;47.00;100227.28;5017599;28;20033;-86
2021/01/21 13:37:13;;;;;;;18.30;13.40;;;;;;;8.08;46.96;100211.66;5034658;28;20084;-87
2021/01/21 13:39:38;;;;;;;22.53;14.27;;;;;;;7.98;46.83;100200.34;5031656;28;20033;-89
2021/01/21 13:42:04;;;;;;;30.43;17.13;;;;;;;7.81;46.89;100173.03;5036050;28;20438;-90
2021/01/21 13:44:29;;;;;;;26.70;17.13;;;;;;;8.07;47.09;100207.38;5017922;28;20033;-84
2021/01/21 13:46:55;;;;;;;38.90;21.00;;;;;;;8.10;46.99;100217.59;5030673;28;20116;-82
2021/01/21 13:49:20;;;;;;;40.33;23.93;;;;;;;8.16;47.36;100232.78;5031090;28;20034;-81
2021/01/21 13:51:46;;;;;;;58.87;35.20;;;;;;;8.01;47.44;100207.94;5001618;28;20026;-87
2021/01/21 13:54:11;;;;;;;38.43;23.70;;;;;;;7.97;47.46;100232.88;5026150;28;20033;-83
2021/01/21 13:56:38;;;;;;;33.67;20.97;;;;;;;7.70;46.83;100181.09;5033579;28;20022;-80
2021/01/21 13:59:03;;;;;;;34.00;20.43;;;;;;;8.15;47.08;100236.41;5032863;28;20134;-84
2021/01/21 14:01:29;;;;;;;30.27;18.77;;;;;;;7.86;46.96;100223.38;5012174;28;20116;-84
2021/01/21 14:03:54;;;;;;;31.27;17.27;;;;;;;7.29;46.98;100109.56;5033784;28;20118;-88
2021/01/21 14:06:20;;;;;;;25.77;17.00;;;;;;;7.83;46.98;100209.69;5028214;28;20025;-90
2021/01/21 14:08:45;;;;;;;32.37;17.93;;;;;;;8.01;47.51;100226.38;5034139;28;20131;-85
2021/01/21 14:11:10;;;;;;;27.47;18.20;;;;;;;7.76;47.33;100200.72;5034722;28;20017;-90
2021/01/21 14:13:36;;;;;;;26.87;18.23;;;;;;;7.00;47.28;100077.31;5010158;28;20033;-84
2021/01/21 14:16:01;;;;;;;30.20;19.27;;;;;;;7.92;47.13;100229.84;5013470;28;20033;-83
2021/01/21 14:18:27;;;;;;;28.93;18.40;;;;;;;7.91;47.95;100225.56;5030424;28;20033;-88
2021/01/21 14:20:52;;;;;;;26.83;17.50;;;;;;;7.39;47.69;100151.56;5009887;28;20025;-84
2021/01/21 14:23:17;;;;;;;28.73;19.03;;;;;;;7.86;48.10;100228.63;5026999;28;20076;-78
2021/01/21 14:25:43;;;;;;;31.50;19.40;;;;;;;7.70;48.12;100206.56;5028430;28;20436;-86
2021/01/21 14:28:11;;;;;;;27.70;19.60;;;;;;;7.63;47.92;100195.78;5017160;28;20064;-85
2021/01/21 14:30:37;;;;;;;28.40;19.30;;;;;;;7.76;48.06;100232.25;5015683;28;20029;-87
2021/01/21 14:33:03;;;;;;;36.03;22.67;;;;;;;7.67;47.77;100235.75;5035003;28;20471;-92
2021/01/21 14:35:29;;;;;;;33.90;21.27;;;;;;;7.25;48.14;100168.63;5005864;28;20117;-90
2021/01/21 14:37:55;;;;;;;39.27;23.10;;;;;;;7.50;48.36;100213.66;5032912;28;20422;-87
2021/01/21 14:40:21;;;;;;;34.13;22.40;;;;;;;7.30;48.48;100213.66;5030953;28;20029;-86
2021/01/21 14:42:46;;;;;;;38.33;24.57;;;;;;;7.16;48.32;100182.59;5033862;28;20033;-83
2021/01/21 14:45:12;;;;;;;34.33;22.90;;;;;;;7.52;48.19;100238.81;5016162;28;20025;-92
2021/01/21 14:47:38;;;;;;;48.27;27.33;;;;;;;7.24;48.17;100206.34;5026312;28;20033;-84